Time;durP1;ratioP1;P1;durP2;ratioP2;P2;SDS_P1;SDS_P2;PMS_P1;PMS_P2;Temp;Humidity;BMP_temperature;BMP_pressure;BME280_temperature;BME280_humidity;BME280_pressure;Samples;Min_cycle;Max_cycle;Signal;HPM_P1;HPM_P2
2023/07/17 00:00:10;;;;;;;6.28;1.35;;;;;;;15.16;100.00;100732.50;4918516;29;20143;-76
2023/07/17 00:02:44;;;;;;;4.20;1.30;;;;;;;15.14;100.00;100737.59;4917410;29;20126;-75
2023/07/17 00:05:16;;;;;;;3.92;1.10;;;;;;;15.08;100.00;100741.66;4956808;28;20054;-75
2023/07/17 00:07:45;;;;;;;5.75;1.55;;;;;;;15.07;100.00;100732.47;4921240;28;20089;-75
2023/07/17 00:10:11;;;;;;;3.67;1.30;;;;;;;15.04;100.00;100740.63;4921034;29;20564;-75
2023/07/17 00:12:38;;;;;;;5.40;1.50;;;;;;;14.98;100.00;100737.97;4942736;28;20062;-75
2023/07/17 00:15:10;;;;;;;4.40;1.10;;;;;;;14.94;100.00;100745.34;4942174;29;20043;-75
2023/07/17 00:17:36;;;;;;;3.83;1.13;;;;;;;14.93;100.00;100735.31;4930147;28;20041;-75
2023/07/17 00:20:11;;;;;;;3.60;1.23;;;;;;;14.85;100.00;100744.47;4926153;29;20134;-75
2023/07/17 00:22:50;;;;;;;;;;;;;;;;;;;;;
2023/07/17 00:25:26;;;;;;;4.68;1.05;;;;;;;14.83;100.00;100745.94;4944153;28;20503;-75
2023/07/17 00:27:52;;;;;;;4.63;0.95;;;;;;;14.78;100.00;100735.69;4925562;29;20114;-75
2023/07/17 00:30:24;;;;;;;5.85;1.20;;;;;;;14.76;100.00;100735.16;4944305;28;20035;-75
2023/07/17 00:32:50;;;;;;;5.07;1.13;;;;;;;14.70;100.00;100736.44;4942472;29;20031;-75
2023/07/17 00:35:24;;;;;;;5.57;1.27;;;;;;;14.72;100.00;100734.16;4927107;28;20046;-75
2023/07/17 00:37:50;;;;;;;3.65;1.00;;;;;;;14.66;100.00;100741.84;4946117;29;20027;-75
2023/07/17 00:40:22;;;;;;;4.00;1.10;;;;;;;14.65;100.00;100739.34;4917065;28;20102;-75
2023/07/17 00:42:58;;;;;;;5.47;1.30;;;;;;;14.60;100.00;100734.72;4925853;28;20480;-75
2023/07/17 00:45:25;;;;;;;3.22;1.00;;;;;;;14.58;100.00;100733.41;4941439;29;20027;-75
2023/07/17 00:47:55;;;;;;;5.72;1.40;;;;;;;14.56;100.00;100736.50;4939091;29;20484;-75
2023/07/17 00:50:24;;;;;;;4.00;1.25;;;;;;;14.49;100.00;100731.31;4929233;29;20044;-75
2023/07/17 00:52:50;;;;;;;3.75;1.35;;;;;;;14.47;100.00;100733.59;4921334;29;20040;-75
2023/07/17 00:55:18;;;;;;;4.72;1.52;;;;;;;14.49;100.00;100734.09;4963239;28;20406;-75
2023/07/17 00:57:56;;;;;;;3.53;1.02;;;;;;;14.45;100.00;100730.28;4942784;29;20051;-75
2023/07/17 01:00:33;;;;;;;5.70;1.38;;;;;;;14.44;100.00;100728.63;4935334;29;20058;-75
2023/07/17 01:03:06;;;;;;;3.20;1.00;;;;;;;14.36;100.00;100732.16;4948090;28;20043;-75
2023/07/17 01:05:46;;;;;;;4.88;1.35;;;;;;;14.37;100.00;100739.41;4943854;29;20044;-75
2023/07/17 01:08:15;;;;;;;5.80;1.50;;;;;;;14.34;100.00;100740.03;4940046;29;20039;-75
2023/07/17 01:10:41;;;;;;;4.63;1.55;;;;;;;14.36;100.00;100743.34;4932669;29;20046;-75
2023/07/17 01:13:15;;;;;;;7.22;1.13;;;;;;;14.36;100.00;100742.53;4942439;29;20047;-75
2023/07/17 01:15:53;;;;;;;5.57;1.30;;;;;;;14.26;100.00;100750.00;4930172;29;20039;-75
2023/07/17 01:18:21;;;;;;;4.35;1.23;;;;;;;14.23;100.00;100744.19;4952038;29;20051;-75
2023/07/17 01:20:53;;;;;;;4.55;1.30;;;;;;;14.21;100.00;100752.91;4907448;29;20032;-75
2023/07/17 01:23:24;;;;;;;4.55;1.20;;;;;;;14.18;100.00;100747.09;4918443;29;20046;-75
2023/07/17 01:25:56;;;;;;;4.43;1.10;;;;;;;14.15;100.00;100745.78;4942057;29;20085;-75
2023/07/17 01:28:25;;;;;;;4.75;1.27;;;;;;;14.13;100.00;100750.03;4926389;29;20052;-75
2023/07/17 01:30:54;;;;;;;3.42;1.30;;;;;;;14.10;100.00;100748.69;4926315;29;20031;-75
2023/07/17 01:33:31;;;;;;;4.22;1.40;;;;;;;14.06;100.00;100754.03;4910803;29;20032;-75
2023/07/17 01:36:03;;;;;;;4.40;1.10;;;;;;;14.04;100.00;100759.13;4922673;29;20058;-75
2023/07/17 01:38:32;;;;;;;5.03;1.33;;;;;;;14.00;100.00;100758.09;4926165;28;20054;-75
2023/07/17 01:41:06;;;;;;;5.35;1.30;;;;;;;14.01;100.00;100751.38;4935029;29;20515;-75
2023/07/17 01:43:38;;;;;;;6.65;1.30;;;;;;;13.97;100.00;100764.28;4935190;29;20043;-75
2023/07/17 01:46:07;;;;;;;5.93;1.38;;;;;;;13.93;100.00;100760.47;4955719;28;20047;-75
2023/07/17 01:48:41;;;;;;;5.47;1.48;;;;;;;13.91;100.00;100762.75;4949818;29;20039;-75
2023/07/17 01:51:12;;;;;;;7.28;1.10;;;;;;;13.89;100.00;100759.44;4925296;29;20099;-75
2023/07/17 01:53:38;;;;;;;4.95;1.40;;;;;;;13.86;100.00;100760.06;4941308;29;20042;-75
2023/07/17 01:56:03;;;;;;;6.85;1.77;;;;;;;13.86;100.00;100762.84;4908854;29;20039;-75
2023/07/17 01:58:29;;;;;;;5.32;1.17;;;;;;;13.84;100.00;100765.94;4894609;29;20038;-75
2023/07/17 02:00:55;;;;;;;3.40;1.00;;;;;;;13.83;100.00;100766.25;4931480;29;20051;-75
2023/07/17 02:03:20;;;;;;;2.88;1.20;;;;;;;13.82;100.00;100762.66;4909886;29;20358;-75
2023/07/17 02:05:46;;;;;;;3.15;1.48;;;;;;;13.80;100.00;100769.66;4925280;29;20052;-75
2023/07/17 02:08:11;;;;;;;4.18;1.42;;;;;;;13.76;100.00;100769.47;4922048;29;20031;-75
2023/07/17 02:10:41;;;;;;;3.63;1.30;;;;;;;13.74;100.00;100768.94;4921272;29;20475;-75
2023/07/17 02:13:07;;;;;;;4.75;1.40;;;;;;;13.72;100.00;100774.00;4945044;29;20023;-75
2023/07/17 02:15:32;;;;;;;3.60;1.20;;;;;;;13.69;100.00;100769.03;4931602;29;20027;-75
2023/07/17 02:17:58;;;;;;;4.68;1.30;;;;;;;13.72;100.00;100770.38;4925223;29;20047;-75
2023/07/17 02:20:23;;;;;;;4.50;1.20;;;;;;;13.70;100.00;100769.88;4942182;29;20040;-75
2023/07/17 02:22:49;;;;;;;4.90;1.52;;;;;;;13.68;100.00;100763.75;4925211;29;20034;-75
2023/07/17 02:25:15;;;;;;;3.22;1.17;;;;;;;13.68;100.00;100753.44;4893449;29;20036;-75
2023/07/17 02:27:41;;;;;;;5.13;1.45;;;;;;;13.66;100.00;100763.25;4925130;29;20034;-75
2023/07/17 02:30:07;;;;;;;4.90;1.40;;;;;;;13.65;100.00;100759.66;4893573;29;20485;-75
2023/07/17 02:32:33;;;;;;;4.95;1.17;;;;;;;13.61;100.00;100759.41;4915856;29;20059;-75
2023/07/17 02:34:58;;;;;;;4.18;1.10;;;;;;;13.60;100.00;100765.31;4919194;29;20122;-75
2023/07/17 02:37:24;;;;;;;4.95;1.17;;;;;;;13.57;100.00;100761.19;4921325;29;20036;-75
2023/07/17 02:39:50;;;;;;;5.40;1.42;;;;;;;13.53;100.00;100756.50;4924682;29;20028;-75
2023/07/17 02:42:15;;;;;;;3.10;1.30;;;;;;;13.55;100.00;100771.81;4924837;29;20039;-75
2023/07/17 02:44:41;;;;;;;5.03;1.45;;;;;;;13.50;100.00;100771.91;4941624;29;20027;-75
2023/07/17 02:47:06;;;;;;;3.30;1.48;;;;;;;13.50;100.00;100766.31;4912837;28;20080;-75
2023/07/17 02:49:32;;;;;;;4.43;1.20;;;;;;;13.46;100.00;100772.84;4951656;29;20462;-75
2023/07/17 02:51:57;;;;;;;6.78;1.48;;;;;;;13.47;100.00;100772.53;4926226;29;20039;-75
2023/07/17 02:54:22;;;;;;;3.15;1.02;;;;;;;13.45;100.00;100768.38;4924440;29;20397;-75
2023/07/17 02:56:48;;;;;;;3.45;1.20;;;;;;;13.41;100.00;100774.56;4924163;29;20028;-75
2023/07/17 02:59:14;;;;;;;5.05;1.10;;;;;;;13.41;100.00;100779.34;4940263;29;20040;-75
2023/07/17 03:01:39;;;;;;;5.32;1.23;;;;;;;13.38;100.00;100782.75;4937114;29;20396;-75
2023/07/17 03:04:06;;;;;;;4.57;1.25;;;;;;;13.38;100.00;100785.53;4925191;29;20041;-75
2023/07/17 03:06:31;;;;;;;2.85;1.00;;;;;;;13.36;100.00;100780.25;4929879;28;20038;-75
2023/07/17 03:08:56;;;;;;;5.72;1.20;;;;;;;13.36;100.00;100782.22;4951771;29;20491;-75
2023/07/17 03:11:22;;;;;;;3.83;1.20;;;;;;;13.38;100.00;100785.53;4946441;28;20038;-75
2023/07/17 03:13:47;;;;;;;2.92;1.13;;;;;;;13.32;100.00;100786.75;4962496;28;20030;-75
2023/07/17 03:16:13;;;;;;;3.97;1.05;;;;;;;13.30;100.00;100783.44;4943585;29;20039;-75
2023/07/17 03:18:38;;;;;;;4.63;1.23;;;;;;;13.28;100.00;100785.69;4927323;29;20046;-75
2023/07/17 03:21:04;;;;;;;2.88;0.85;;;;;;;13.30;100.00;100777.88;4943027;29;20039;-75
2023/07/17 03:23:29;;;;;;;5.03;1.00;;;;;;;13.29;100.00;100777.03;4936447;29;20069;-75
2023/07/17 03:25:58;;;;;;;5.28;1.45;;;;;;;13.26;100.00;100782.38;4908006;29;20494;-75
2023/07/17 03:28:23;;;;;;;4.05;1.30;;;;;;;13.28;100.00;100778.16;4927096;28;20085;-75
2023/07/17 03:30:51;;;;;;;3.33;1.30;;;;;;;13.23;100.00;100788.53;4942981;29;20031;-75
2023/07/17 03:33:16;;;;;;;4.30;1.20;;;;;;;13.23;100.00;100788.53;4927997;28;20494;-75
2023/07/17 03:35:42;;;;;;;4.40;1.17;;;;;;;13.16;100.00;100784.19;4930494;29;20023;-75
2023/07/17 03:38:07;;;;;;;3.13;1.00;;;;;;;13.21;100.00;100776.88;4942749;28;20476;-75
2023/07/17 03:40:33;;;;;;;4.95;1.38;;;;;;;13.16;100.00;100784.19;4930306;29;20158;-75
2023/07/17 03:42:58;;;;;;;3.95;1.20;;;;;;;13.16;100.00;100775.81;4955347;28;20058;-75
2023/07/17 03:45:24;;;;;;;3.55;1.58;;;;;;;13.18;100.00;100783.91;4914906;29;20091;-75
2023/07/17 03:47:50;;;;;;;5.95;1.50;;;;;;;13.11;100.00;100786.22;4942972;28;20023;-75
2023/07/17 03:50:16;;;;;;;3.72;1.05;;;;;;;13.09;100.00;100786.56;4959363;28;20031;-76
2023/07/17 03:52:41;;;;;;;3.50;1.20;;;;;;;13.11;100.00;100787.06;4934188;29;20161;-75
2023/07/17 03:55:07;;;;;;;5.68;1.52;;;;;;;13.06;100.00;100789.94;4938984;29;20392;-75
2023/07/17 03:57:32;;;;;;;4.00;1.23;;;;;;;13.07;100.00;100794.38;4926773;29;20114;-75
2023/07/17 03:59:58;;;;;;;3.05;1.13;;;;;;;13.04;100.00;100794.16;4895281;29;20082;-75
2023/07/17 04:02:23;;;;;;;4.53;1.05;;;;;;;13.03;100.00;100806.44;4936455;28;20042;-75
2023/07/17 04:04:50;;;;;;;4.18;1.50;;;;;;;12.98;100.00;100798.97;4958170;28;20106;-75
2023/07/17 04:07:15;;;;;;;5.25;1.52;;;;;;;13.01;100.00;100794.75;4934292;29;20555;-75
2023/07/17 04:09:41;;;;;;;4.28;1.42;;;;;;;12.96;100.00;100801.25;4925262;29;20031;-75
2023/07/17 04:12:07;;;;;;;4.00;1.45;;;;;;;12.97;100.00;100809.31;4946220;28;20038;-75
2023/07/17 04:14:33;;;;;;;5.60;1.38;;;;;;;12.95;100.00;100805.16;4956522;29;20031;-75
2023/07/17 04:16:59;;;;;;;5.05;1.42;;;;;;;12.89;100.00;100806.38;4926461;29;20074;-75
2023/07/17 04:19:24;;;;;;;4.07;1.38;;;;;;;12.90;100.00;100810.84;4928197;28;20391;-75
2023/07/17 04:21:50;;;;;;;4.82;1.35;;;;;;;12.87;100.00;100808.63;4950370;29;20543;-75
2023/07/17 04:24:15;;;;;;;3.08;1.38;;;;;;;12.88;100.00;100811.13;4941866;29;20039;-75
2023/07/17 04:26:40;;;;;;;5.82;1.50;;;;;;;12.88;100.00;100804.72;4942304;29;20032;-75
2023/07/17 04:29:10;;;;;;;5.38;1.50;;;;;;;12.87;100.00;100803.06;4924381;29;20074;-75
2023/07/17 04:31:36;;;;;;;6.38;1.58;;;;;;;12.83;100.00;100805.63;4906728;28;20082;-75
2023/07/17 04:34:01;;;;;;;4.32;1.27;;;;;;;12.83;100.00;100804.81;4938754;29;20028;-75
2023/07/17 04:36:27;;;;;;;6.40;1.73;;;;;;;12.84;100.00;100814.81;4954262;28;20042;-75
2023/07/17 04:38:52;;;;;;;6.97;1.73;;;;;;;12.84;100.00;100814.81;4925934;29;20043;-75
2023/07/17 04:41:18;;;;;;;5.00;1.40;;;;;;;12.84;100.00;100812.88;4910392;29;20028;-76
2023/07/17 04:43:43;;;;;;;4.88;1.42;;;;;;;12.85;100.00;100811.75;4938788;29;20031;-75
2023/07/17 04:46:09;;;;;;;6.40;1.67;;;;;;;12.87;100.00;100814.22;4926130;29;20027;-75
2023/07/17 04:48:34;;;;;;;5.10;1.52;;;;;;;12.86;100.00;100809.78;4951308;28;20027;-75
2023/07/17 04:51:00;;;;;;;4.72;1.58;;;;;;;12.88;100.00;100813.09;4951164;29;20050;-75
2023/07/17 04:53:25;;;;;;;4.30;1.50;;;;;;;12.91;100.00;100813.31;4926056;29;20038;-75
2023/07/17 04:55:51;;;;;;;5.80;1.70;;;;;;;12.96;100.00;100818.00;4932584;29;20392;-76
2023/07/17 04:58:18;;;;;;;2.25;1.45;;;;;;;13.02;100.00;100815.94;4941498;29;20086;-75
2023/07/17 05:00:46;;;;;;;4.68;1.45;;;;;;;13.09;100.00;100822.81;4932815;29;20110;-75
2023/07/17 05:03:14;;;;;;;4.55;1.40;;;;;;;13.16;100.00;100819.63;4928961;29;20031;-75
2023/07/17 05:05:40;;;;;;;4.68;1.58;;;;;;;13.24;100.00;100816.13;4926334;29;20144;-75
2023/07/17 05:08:05;;;;;;;6.07;1.75;;;;;;;13.32;100.00;100820.22;4925804;29;20020;-75
2023/07/17 05:10:31;;;;;;;5.63;1.58;;;;;;;13.44;100.00;100815.00;4933268;29;20110;-75
2023/07/17 05:12:56;;;;;;;6.60;1.73;;;;;;;13.52;100.00;100819.88;4954473;29;20031;-76
2023/07/17 05:15:22;;;;;;;7.18;1.60;;;;;;;13.62;100.00;100824.41;4934177;29;20035;-75
2023/07/17 05:17:47;;;;;;;6.18;2.10;;;;;;;13.74;100.00;100827.56;4894323;29;20501;-75
2023/07/17 05:20:13;;;;;;;4.97;1.48;;;;;;;13.84;100.00;100834.91;4952852;28;20035;-76
2023/07/17 05:22:38;;;;;;;3.42;1.45;;;;;;;13.98;100.00;100832.13;4941661;29;20050;-75
2023/07/17 05:25:05;;;;;;;8.30;2.22;;;;;;;14.09;100.00;100834.41;4929443;29;20031;-75
2023/07/17 05:27:30;;;;;;;6.47;1.67;;;;;;;14.22;100.00;100829.16;4959978;29;20089;-76
2023/07/17 05:29:56;;;;;;;6.80;1.70;;;;;;;14.37;100.00;100844.75;4945112;29;20035;-75
2023/07/17 05:32:21;;;;;;;5.13;1.58;;;;;;;14.50;100.00;100830.75;4933035;29;20031;-76
2023/07/17 05:34:47;;;;;;;5.57;1.95;;;;;;;14.65;100.00;100835.22;4929324;29;20439;-75
2023/07/17 05:37:13;;;;;;;3.45;1.52;;;;;;;14.80;100.00;100841.63;4930752;28;20030;-76
2023/07/17 05:39:38;;;;;;;4.60;1.75;;;;;;;14.91;100.00;100841.06;4937336;29;20027;-76
2023/07/17 05:42:04;;;;;;;4.03;1.48;;;;;;;15.04;100.00;100842.16;4927299;29;20043;-75
2023/07/17 05:44:29;;;;;;;4.47;1.77;;;;;;;15.18;100.00;100842.09;4924103;28;20023;-75
2023/07/17 05:46:55;;;;;;;6.03;2.08;;;;;;;15.31;100.00;100849.63;4946463;28;20098;-75
2023/07/17 05:49:20;;;;;;;3.47;1.50;;;;;;;15.46;100.00;100847.56;4940877;28;20085;-75
2023/07/17 05:51:46;;;;;;;4.18;1.95;;;;;;;15.60;100.00;100848.31;4931949;29;20503;-76
2023/07/17 05:54:11;;;;;;;4.85;1.60;;;;;;;15.74;100.00;100856.66;4928689;29;20027;-76
2023/07/17 05:56:37;;;;;;;4.60;1.95;;;;;;;15.89;100.00;100856.28;4928841;28;20118;-75
2023/07/17 05:59:03;;;;;;;5.40;1.80;;;;;;;16.04;100.00;100858.66;4919270;28;20035;-75
2023/07/17 06:01:28;;;;;;;4.88;2.00;;;;;;;16.20;100.00;100861.03;4944910;28;20035;-76
2023/07/17 06:03:54;;;;;;;6.03;1.90;;;;;;;16.37;100.00;100858.28;4946129;29;20035;-76
2023/07/17 06:06:19;;;;;;;6.05;1.98;;;;;;;16.53;100.00;100867.91;4960024;29;20055;-76
2023/07/17 06:08:45;;;;;;;7.28;2.13;;;;;;;16.71;100.00;100871.56;4919250;29;20020;-76
2023/07/17 06:11:10;;;;;;;6.70;2.08;;;;;;;16.90;100.00;100873.28;4947758;28;20509;-76
2023/07/17 06:13:36;;;;;;;5.25;2.08;;;;;;;17.08;100.00;100880.59;4937764;29;20394;-76
2023/07/17 06:16:02;;;;;;;7.57;2.13;;;;;;;17.26;100.00;100880.59;4928401;29;20054;-76
2023/07/17 06:18:28;;;;;;;8.05;2.42;;;;;;;17.43;100.00;100881.38;4954233;28;20074;-76
2023/07/17 06:20:53;;;;;;;4.85;1.83;;;;;;;17.62;100.00;100883.84;4941049;29;20046;-76
2023/07/17 06:23:18;;;;;;;5.85;2.22;;;;;;;17.79;100.00;100879.41;4934930;29;20028;-76
2023/07/17 06:25:45;;;;;;;5.20;2.10;;;;;;;17.98;100.00;100890.25;4947105;28;20082;-76
2023/07/17 06:28:11;;;;;;;6.95;1.90;;;;;;;18.18;100.00;100888.69;4937621;29;20384;-76
2023/07/17 06:30:36;;;;;;;5.43;2.50;;;;;;;18.35;100.00;100887.81;4925267;29;20074;-76
2023/07/17 06:33:02;;;;;;;7.28;2.05;;;;;;;18.53;100.00;100901.47;4928280;29;20027;-76
2023/07/17 06:35:27;;;;;;;8.60;2.50;;;;;;;18.70;100.00;100894.91;4931153;29;20040;-76
2023/07/17 06:37:53;;;;;;;6.95;2.28;;;;;;;18.87;100.00;100891.19;4943973;29;20507;-76
2023/07/17 06:40:18;;;;;;;7.68;2.38;;;;;;;19.03;100.00;100884.94;4927966;29;20046;-76
2023/07/17 06:42:44;;;;;;;7.50;2.72;;;;;;;19.21;100.00;100909.00;4927975;29;20089;-76
2023/07/17 06:45:09;;;;;;;9.27;2.65;;;;;;;19.37;100.00;100898.75;4912109;29;20023;-76
2023/07/17 06:47:35;;;;;;;5.47;2.30;;;;;;;19.54;100.00;100899.78;4923269;28;20023;-76
2023/07/17 06:50:00;;;;;;;5.63;2.35;;;;;;;19.67;100.00;100909.97;4964594;28;20154;-76
2023/07/17 06:52:26;;;;;;;8.43;2.80;;;;;;;19.83;100.00;100907.31;4931637;29;20058;-75
2023/07/17 06:54:52;;;;;;;7.80;2.17;;;;;;;19.96;100.00;100908.19;4941263;28;20112;-76
2023/07/17 06:57:17;;;;;;;7.22;2.80;;;;;;;20.14;100.00;100911.63;4932906;29;20377;-76
2023/07/17 06:59:42;;;;;;;6.35;2.20;;;;;;;20.29;100.00;100920.25;4971512;28;20397;-76
2023/07/17 07:02:09;;;;;;;7.72;2.30;;;;;;;20.40;100.00;100920.59;4953956;29;20027;-76
2023/07/17 07:04:34;;;;;;;10.38;3.05;;;;;;;20.61;100.00;100919.69;4927830;28;20183;-76
2023/07/17 07:06:59;;;;;;;10.02;2.40;;;;;;;20.73;100.00;100923.38;4937699;29;20039;-76
2023/07/17 07:09:25;;;;;;;6.20;2.53;;;;;;;20.88;100.00;100930.28;4918989;28;20027;-76
2023/07/17 07:11:50;;;;;;;9.20;2.90;;;;;;;21.01;100.00;100914.16;4939302;28;20041;-76
2023/07/17 07:14:16;;;;;;;6.57;2.50;;;;;;;21.17;100.00;100931.19;4963907;28;20050;-76
2023/07/17 07:16:42;;;;;;;7.10;2.50;;;;;;;21.28;100.00;100926.69;4932862;29;20039;-76
2023/07/17 07:19:07;;;;;;;6.18;2.55;;;;;;;21.45;100.00;100927.63;4924758;28;20479;-76
2023/07/17 07:21:33;;;;;;;8.02;2.70;;;;;;;21.53;100.00;100929.47;4940571;28;20453;-76
2023/07/17 07:23:59;;;;;;;7.28;2.35;;;;;;;21.66;100.00;100931.06;4929505;28;20390;-76
2023/07/17 07:26:24;;;;;;;6.00;2.35;;;;;;;21.74;100.00;100938.59;4943855;28;20097;-76
2023/07/17 07:28:50;;;;;;;5.85;2.00;;;;;;;21.92;100.00;100941.91;4946986;28;20480;-79
2023/07/17 07:31:15;;;;;;;5.53;2.38;;;;;;;22.05;100.00;100937.03;4925448;29;20031;-77
2023/07/17 07:33:41;;;;;;;4.90;2.10;;;;;;;22.15;100.00;100939.34;4928054;28;20381;-77
2023/07/17 07:36:07;;;;;;;7.32;2.50;;;;;;;22.24;100.00;100940.00;4944137;29;20035;-77
2023/07/17 07:38:32;;;;;;;6.80;2.35;;;;;;;22.40;100.00;100942.88;4919278;28;20034;-76
2023/07/17 07:40:58;;;;;;;8.65;2.50;;;;;;;22.48;100.00;100947.53;4942636;29;20082;-77
2023/07/17 07:43:23;;;;;;;8.13;2.63;;;;;;;22.57;100.00;100947.34;4929532;28;20047;-77
2023/07/17 07:45:49;;;;;;;6.32;2.00;;;;;;;22.64;100.00;100949.50;4936444;28;20038;-77
2023/07/17 07:48:14;;;;;;;7.18;2.40;;;;;;;22.72;100.00;100957.81;4957632;28;20031;-77
2023/07/17 07:50:39;;;;;;;6.10;2.25;;;;;;;22.78;100.00;100958.38;4966440;28;20495;-76
2023/07/17 07:53:05;;;;;;;6.35;1.95;;;;;;;22.85;100.00;100961.38;4927611;28;20042;-77
2023/07/17 07:55:30;;;;;;;6.53;2.47;;;;;;;22.87;100.00;100963.84;4925989;28;20019;-77
2023/07/17 07:57:56;;;;;;;5.57;2.15;;;;;;;22.88;100.00;100960.66;4926869;28;20031;-77
2023/07/17 08:00:21;;;;;;;7.38;2.17;;;;;;;22.90;100.00;100966.78;4919540;29;20039;-77
2023/07/17 08:02:47;;;;;;;5.13;1.92;;;;;;;22.93;100.00;100954.72;4931551;28;20472;-77
2023/07/17 08:05:12;;;;;;;6.13;1.90;;;;;;;23.02;100.00;100965.06;4943004;28;20051;-77
2023/07/17 08:07:38;;;;;;;7.43;2.28;;;;;;;23.09;100.00;100965.22;4936970;28;20053;-77
2023/07/17 08:10:04;;;;;;;4.25;1.80;;;;;;;23.13;100.00;100969.78;4914637;29;20118;-77
2023/07/17 08:12:31;;;;;;;4.78;2.47;;;;;;;23.19;100.00;100967.47;4931073;28;20486;-77
2023/07/17 08:15:02;;;;;;;4.32;1.58;;;;;;;23.25;100.00;100963.16;4930882;29;20031;-77
2023/07/17 08:17:27;;;;;;;8.23;2.80;;;;;;;23.31;100.00;100972.19;4919125;28;20042;-77
2023/07/17 08:19:53;;;;;;;6.00;2.10;;;;;;;23.38;100.00;100967.53;4926339;29;20185;-77
2023/07/17 08:22:30;;;;;;;10.52;2.97;;;;;;;23.41;99.71;100975.28;4937811;28;20034;-77
2023/07/17 08:24:55;;;;;;;6.85;2.20;;;;;;;23.51;98.11;100973.88;4942887;29;20035;-77
2023/07/17 08:27:22;;;;;;;5.65;2.20;;;;;;;23.59;99.04;100980.53;4958667;28;20496;-77
2023/07/17 08:29:50;;;;;;;5.22;2.40;;;;;;;23.61;98.37;100986.66;4932745;29;20039;-77
2023/07/17 08:32:22;;;;;;;5.68;2.45;;;;;;;23.58;98.65;100984.56;4966569;28;20050;-77
2023/07/17 08:34:48;;;;;;;6.43;2.50;;;;;;;23.65;99.64;100984.69;4974680;28;20476;-77
2023/07/17 08:37:14;;;;;;;5.60;2.50;;;;;;;23.74;98.46;100991.03;4928906;28;20109;-77
2023/07/17 08:39:39;;;;;;;7.55;2.78;;;;;;;23.85;95.97;100985.56;4949746;29;20027;-76
2023/07/17 08:42:06;;;;;;;6.47;2.72;;;;;;;23.92;95.23;100982.06;4940726;28;20063;-76
2023/07/17 08:44:51;;;;;;;8.02;3.03;;;;;;;23.94;90.39;100985.34;4921854;28;20586;-77
2023/07/17 08:47:37;;;;;;;6.10;2.67;;;;;;;23.96;93.78;100982.94;4942807;28;20023;-77
2023/07/17 08:50:02;;;;;;;6.60;2.85;;;;;;;23.98;94.50;100983.38;4928229;28;20448;-77
2023/07/17 08:52:28;;;;;;;7.07;2.58;;;;;;;24.09;92.80;100981.59;4938897;28;20027;-77
2023/07/17 08:54:53;;;;;;;7.53;2.30;;;;;;;24.20;94.25;100985.47;4947807;28;20041;-77
2023/07/17 08:57:19;;;;;;;4.70;2.40;;;;;;;24.35;92.85;100980.91;4918139;28;20502;-77
2023/07/17 08:59:44;;;;;;;7.30;2.40;;;;;;;24.43;92.95;100985.53;4962813;28;20043;-77
2023/07/17 09:02:10;;;;;;;7.03;2.65;;;;;;;24.64;91.47;100982.25;4945492;29;20432;-77
2023/07/17 09:04:35;;;;;;;3.78;2.13;;;;;;;24.80;90.94;100979.28;4931435;28;20126;-76
2023/07/17 09:07:01;;;;;;;7.18;2.60;;;;;;;24.91;88.81;100985.16;4932233;28;20034;-77
2023/07/17 09:09:26;;;;;;;4.30;2.13;;;;;;;25.01;89.09;100987.31;4948795;28;20476;-77
2023/07/17 09:12:08;;;;;;;5.03;2.00;;;;;;;25.12;86.63;100982.63;4939280;28;20041;-77
2023/07/17 09:14:35;;;;;;;4.50;2.30;;;;;;;25.31;85.91;100986.59;4943535;29;20179;-77
2023/07/17 09:17:04;;;;;;;6.03;2.17;;;;;;;25.53;83.04;100985.72;4941364;29;20276;-77
2023/07/17 09:19:33;;;;;;;8.48;2.42;;;;;;;25.71;80.43;100979.44;4927044;29;20031;-76
2023/07/17 09:21:59;;;;;;;7.00;2.50;;;;;;;25.83;80.22;100985.75;4928898;28;20039;-77
2023/07/17 09:24:27;;;;;;;6.93;2.65;;;;;;;25.95;76.55;100978.97;4929772;28;20089;-77
2023/07/17 09:26:56;;;;;;;5.47;2.30;;;;;;;26.10;77.25;100982.78;4952794;29;20568;-77
2023/07/17 09:29:23;;;;;;;5.25;2.53;;;;;;;26.19;77.26;100983.31;4934998;28;20046;-77
2023/07/17 09:31:49;;;;;;;5.85;2.50;;;;;;;26.24;75.35;100984.97;4947840;28;20026;-77
2023/07/17 09:34:15;;;;;;;4.80;2.00;;;;;;;26.30;74.87;100983.44;4936449;28;20373;-77
2023/07/17 09:36:41;;;;;;;4.97;2.45;;;;;;;26.39;74.27;100991.66;4929192;28;20035;-77
2023/07/17 09:39:07;;;;;;;5.03;2.13;;;;;;;26.46;70.63;100992.53;4936177;28;20027;-77
2023/07/17 09:41:33;;;;;;;6.72;2.65;;;;;;;26.48;71.87;101000.69;4950080;28;20031;-77
2023/07/17 09:44:05;;;;;;;6.88;2.45;;;;;;;26.49;69.87;100996.63;4928087;29;20042;-77
2023/07/17 09:46:38;;;;;;;4.65;2.63;;;;;;;26.44;69.51;100996.97;4944598;28;20031;-77
2023/07/17 09:49:04;;;;;;;6.72;2.25;;;;;;;26.33;68.04;100994.03;4935138;29;20098;-77
2023/07/17 09:51:30;;;;;;;6.40;2.22;;;;;;;26.25;69.03;101003.72;4903441;28;20027;-77
2023/07/17 09:53:57;;;;;;;7.80;2.28;;;;;;;26.14;67.84;100999.94;4928249;29;20095;-77
2023/07/17 09:56:22;;;;;;;5.85;2.40;;;;;;;26.01;70.39;101005.88;4925536;28;20050;-77
2023/07/17 09:58:53;;;;;;;5.78;2.25;;;;;;;25.84;68.56;101010.13;4933357;29;20039;-76
2023/07/17 10:01:20;;;;;;;6.38;2.58;;;;;;;25.70;72.74;101009.09;4930704;28;20035;-77
2023/07/17 10:03:49;;;;;;;5.03;2.60;;;;;;;25.53;74.20;101011.31;4916155;28;20096;-77
2023/07/17 10:06:16;;;;;;;5.25;2.50;;;;;;;25.32;73.94;101008.13;4915723;28;20050;-77
2023/07/17 10:08:46;;;;;;;5.72;2.60;;;;;;;25.22;73.30;101003.94;4930546;28;20486;-77
2023/07/17 10:11:13;;;;;;;8.48;2.70;;;;;;;25.03;73.03;101006.84;4944706;28;20035;-77
2023/07/17 10:13:39;;;;;;;7.47;2.75;;;;;;;24.87;74.29;101009.81;4957062;28;20080;-76
2023/07/17 10:16:04;;;;;;;3.70;2.10;;;;;;;24.74;75.33;101012.06;4934798;29;20039;-77
2023/07/17 10:18:30;;;;;;;5.82;2.50;;;;;;;24.56;74.41;101014.56;4943099;29;20043;-77
2023/07/17 10:20:56;;;;;;;6.22;2.13;;;;;;;24.41;75.94;101021.16;4926283;29;20471;-77
2023/07/17 10:23:25;;;;;;;7.10;2.30;;;;;;;24.27;77.24;101014.00;4962071;28;20172;-76
2023/07/17 10:25:51;;;;;;;6.18;2.70;;;;;;;24.17;79.67;101017.44;4942945;28;20035;-76
2023/07/17 10:28:29;;;;;;;6.03;2.70;;;;;;;24.04;79.08;101028.13;4925596;28;20029;-76
2023/07/17 10:30:55;;;;;;;5.68;2.90;;;;;;;23.94;78.09;101027.91;4947452;28;20039;-76
2023/07/17 10:33:22;;;;;;;7.63;3.00;;;;;;;23.89;80.62;101034.69;4951754;28;20027;-76
2023/07/17 10:35:56;;;;;;;5.55;2.65;;;;;;;23.81;80.92;101033.69;4928472;29;20031;-76
2023/07/17 10:38:26;;;;;;;4.57;2.55;;;;;;;23.73;81.64;101037.56;4941701;28;20126;-77
2023/07/17 10:41:04;;;;;;;7.07;2.70;;;;;;;23.66;80.71;101026.06;4931403;28;20034;-76
2023/07/17 10:43:30;;;;;;;5.85;2.55;;;;;;;23.61;80.99;101027.16;4962966;28;20041;-76
2023/07/17 10:45:55;;;;;;;8.27;2.58;;;;;;;23.56;82.03;101032.28;4943771;29;20027;-76
2023/07/17 10:48:25;;;;;;;6.65;2.22;;;;;;;23.56;81.90;101020.94;4953574;28;20030;-76
2023/07/17 10:50:54;;;;;;;5.70;2.67;;;;;;;23.58;82.14;101029.91;4971363;28;20452;-76
2023/07/17 10:53:20;;;;;;;4.78;2.45;;;;;;;23.64;83.63;101025.59;4927170;28;20122;-76
2023/07/17 10:55:49;;;;;;;4.75;2.20;;;;;;;23.78;86.00;101025.13;4927586;29;20038;-77
2023/07/17 10:58:14;;;;;;;4.38;2.20;;;;;;;23.89;82.81;101028.19;4931818;28;20109;-77
2023/07/17 11:00:43;;;;;;;6.82;2.42;;;;;;;24.05;81.29;101020.44;4943262;28;20039;-77
2023/07/17 11:03:20;;;;;;;4.97;2.30;;;;;;;24.30;80.31;101015.25;4945816;29;20106;-77
2023/07/17 11:05:46;;;;;;;8.02;2.15;;;;;;;24.52;79.70;101016.53;4924675;29;20063;-76
2023/07/17 11:08:12;;;;;;;4.93;2.22;;;;;;;24.72;78.70;101017.28;4924319;29;20027;-76
2023/07/17 11:10:39;;;;;;;5.97;2.13;;;;;;;24.93;83.26;101009.13;4907707;29;20112;-77
2023/07/17 11:13:05;;;;;;;5.18;2.17;;;;;;;25.18;80.06;101020.09;4926337;29;20036;-77
2023/07/17 11:15:34;;;;;;;6.00;2.20;;;;;;;25.45;78.89;101018.09;4938729;29;20039;-77
2023/07/17 11:18:00;;;;;;;5.88;2.35;;;;;;;25.72;74.04;101015.22;4905604;29;20028;-77